| time (UTC) | temp C | wind direction | speed KPH | gust KPH | rain 1hr cm | rain 24hr cm | rain mn cm | humidity % | barometer mb |
| 20260507211517 | 26 | 306 | 4.8 | 19.3 | 0.00 | 0.00 | 0.00 | 52 | 1016.1 |
| 20260507210536 | 27 | 288 | 4.8 | 17.7 | 0.00 | 0.00 | 0.00 | 53 | 1016.1 |
| 20260507205515 | 27 | 268 | 3.2 | 11.3 | 0.00 | 0.00 | 0.00 | 53 | 1016.2 |
| 20260507204520 | 27 | 298 | 3.2 | 12.9 | 0.00 | 0.00 | 0.00 | 53 | 1016.3 |
| 20260507203515 | 27 | 244 | 4.8 | 12.9 | 0.00 | 0.00 | 0.00 | 52 | 1016.4 |
| 20260507202538 | 27 | 249 | 1.6 | 9.7 | 0.00 | 0.00 | 0.00 | 51 | 1016.5 |
| 20260507201515 | 27 | 296 | 3.2 | 17.7 | 0.00 | 0.00 | 0.00 | 51 | 1016.7 |
| 20260507200516 | 26 | 284 | 1.6 | 12.9 | 0.00 | 0.00 | 0.00 | 47 | 1016.7 |
| 20260507195516 | 26 | 281 | 3.2 | 11.3 | 0.00 | 0.00 | 0.00 | 46 | 1016.7 |
| 20260507194517 | 26 | 292 | 6.4 | 16.1 | 0.00 | 0.00 | 0.00 | 46 | 1016.7 |
| 20260507193517 | 26 | 276 | 3.2 | 12.9 | 0.00 | 0.00 | 0.00 | 46 | 1016.7 |
| 20260507192515 | 25 | 298 | 4.8 | 20.9 | 0.00 | 0.00 | 0.00 | 46 | 1016.8 |
| 20260507191515 | 25 | 302 | 8.0 | 17.7 | 0.00 | 0.00 | 0.00 | 46 | 1016.9 |
| 20260507190515 | 27 | 210 | 3.2 | 9.7 | 0.00 | 0.00 | 0.00 | 46 | 1017.1 |
| 20260507185537 | 26 | 236 | 3.2 | 14.5 | 0.00 | 0.00 | 0.00 | 46 | 1017.2 |
| 20260507184517 | 26 | 205 | 3.2 | 17.7 | 0.00 | 0.00 | 0.00 | 46 | 1017.2 |
| 20260507183517 | 26 | 205 | 4.8 | 17.7 | 0.00 | 0.00 | 0.00 | 46 | 1017.2 |
| 20260507182517 | 25 | 212 | 4.8 | 16.1 | 0.00 | 0.00 | 0.00 | 46 | 1017.1 |
| 20260507181520 | 25 | 224 | 3.2 | 14.5 | 0.00 | 0.00 | 0.00 | 46 | 1017.1 |
| 20260507180517 | 25 | 224 | 6.4 | 16.1 | 0.00 | 0.00 | 0.00 | 46 | 1017.2 |
| 20260507175516 | 24 | 239 | 4.8 | 14.5 | 0.00 | 0.00 | 0.00 | 46 | 1017.3 |
| 20260507174515 | 25 | 245 | 4.8 | 16.1 | 0.00 | 0.00 | 0.00 | 46 | 1017.3 |
| 20260507173537 | 23 | 234 | 4.8 | 12.9 | 0.00 | 0.00 | 0.00 | 46 | 1017.4 |
| 20260507172516 | 24 | 234 | 3.2 | 12.9 | 0.00 | 0.00 | 0.00 | 46 | 1017.4 |
| 20260507171517 | 23 | 248 | 4.8 | 16.1 | 0.00 | 0.00 | 0.00 | 46 | 1017.5 |
| 20260507170537 | 23 | 199 | 4.8 | 16.1 | 0.00 | 0.00 | 0.00 | 45 | 1017.7 |
| 20260507165516 | 23 | 226 | 3.2 | 14.5 | 0.00 | 0.00 | 0.00 | 45 | 1017.8 |
| 20260507164517 | 22 | 228 | 3.2 | 11.3 | 0.00 | 0.00 | 0.00 | 45 | 1017.8 |
| 20260507163537 | 22 | 268 | 1.6 | 14.5 | 0.00 | 0.00 | 0.00 | 45 | 1017.8 |
| 20260507162515 | 20 | 279 | 4.8 | 17.7 | 0.00 | 0.00 | 0.00 | 45 | 1017.8 |
| 20260507161539 | 19 | 299 | 8.0 | 24.1 | 0.00 | 0.00 | 0.00 | 45 | 1017.9 |
| 20260507160515 | 20 | 299 | 3.2 | 12.9 | 0.00 | 0.00 | 0.00 | 45 | 1018.0 |
| 20260507155516 | 20 | 238 | 3.2 | 14.5 | 0.00 | 0.00 | 0.00 | 45 | 1018.0 |
| 20260507154517 | 20 | 228 | 3.2 | 11.3 | 0.00 | 0.00 | 0.00 | 45 | 1017.9 |
| 20260507153515 | 18 | 312 | 3.2 | 17.7 | 0.00 | 0.00 | 0.00 | 45 | 1017.8 |
| 20260507152515 | 19 | 246 | 3.2 | 14.5 | 0.00 | 0.00 | 0.00 | 45 | 1017.7 |
| 20260507151517 | 18 | 259 | 1.6 | 6.4 | 0.00 | 0.00 | 0.00 | 45 | 1017.7 |
| 20260507150521 | 17 | 330 | 4.8 | 14.5 | 0.00 | 0.00 | 0.00 | 45 | 1017.7 |
| 20260507145515 | 17 | 290 | 0.0 | 6.4 | 0.00 | 0.00 | 0.00 | 45 | 1017.7 |
| 20260507144515 | 16 | 47 | 1.6 | 8.0 | 0.00 | 0.00 | 0.00 | 45 | 1017.7 |
| 20260507143518 | 16 | 69 | 1.6 | 8.0 | 0.00 | 0.00 | 0.00 | 45 | 1017.4 |
| 20260507142517 | 15 | 132 | 1.6 | 6.4 | 0.00 | 0.00 | 0.00 | 44 | 1017.2 |
| 20260507141516 | 14 | 124 | 1.6 | 4.8 | 0.00 | 0.00 | 0.00 | 44 | 1017.1 |
| 20260507140515 | 14 | 102 | 6.4 | 12.9 | 0.00 | 0.00 | 0.00 | 44 | 1017.0 |
| 20260507135515 | 13 | 110 | 8.0 | 12.9 | 0.00 | 0.00 | 0.00 | 44 | 1017.1 |
| 20260507134515 | 13 | 114 | 11.3 | 20.9 | 0.00 | 0.00 | 0.00 | 44 | 1017.0 |
| 20260507133517 | 13 | 112 | 1.6 | 14.5 | 0.00 | 0.00 | 0.00 | 45 | 1016.9 |
| 20260507132515 | 13 | 141 | 4.8 | 12.9 | 0.00 | 0.00 | 0.00 | 45 | 1016.8 |
| 20260507131516 | 12 | 144 | 6.4 | 11.3 | 0.00 | 0.00 | 0.00 | 45 | 1016.6 |
| 20260507130516 | 12 | 144 | 1.6 | 8.0 | 0.00 | 0.00 | 0.00 | 45 | 1016.6 |
| 20260507125517 | 13 | 282 | 4.8 | 9.7 | 0.00 | 0.00 | 0.00 | 45 | 1016.5 |
| 20260507124537 | 12 | 117 | 1.6 | 6.4 | 0.00 | 0.00 | 0.00 | 45 | 1016.6 |
| 20260507123517 | 13 | 182 | 4.8 | 16.1 | 0.00 | 0.00 | 0.00 | 45 | 1016.3 |
| 20260507122515 | 13 | 231 | 3.2 | 12.9 | 0.00 | 0.00 | 0.00 | 45 | 1016.3 |
| 20260507121517 | 13 | 258 | 3.2 | 12.9 | 0.00 | 0.00 | 0.00 | 45 | 1016.2 |
| 20260507120515 | 13 | 220 | 4.8 | 19.3 | 0.00 | 0.00 | 0.00 | 45 | 1016.0 |
| 20260507115517 | 13 | 238 | 4.8 | 16.1 | 0.00 | 0.00 | 0.00 | 45 | 1015.9 |
| 20260507114519 | 13 | 261 | 3.2 | 12.9 | 0.00 | 0.00 | 0.00 | 45 | 1016.0 |
| 20260507113515 | 13 | 210 | 3.2 | 12.9 | 0.00 | 0.00 | 0.00 | 45 | 1015.9 |
| 20260507112516 | 13 | 200 | 3.2 | 14.5 | 0.00 | 0.00 | 0.00 | 45 | 1015.8 |
| 20260507111518 | 13 | 194 | 3.2 | 11.3 | 0.00 | 0.00 | 0.00 | 45 | 1015.8 |
| 20260507110517 | 13 | 210 | 3.2 | 14.5 | 0.00 | 0.00 | 0.00 | 45 | 1015.7 |
| 20260507105516 | 13 | 177 | 3.2 | 16.1 | 0.00 | 0.00 | 0.00 | 45 | 1015.8 |
| 20260507104535 | 13 | 161 | 1.6 | 8.0 | 0.00 | 0.00 | 0.00 | 45 | 1015.7 |
| 20260507103536 | 13 | 201 | 3.2 | 9.7 | 0.00 | 0.00 | 0.00 | 45 | 1015.8 |
| 20260507102536 | 13 | 207 | 4.8 | 12.9 | 0.00 | 0.00 | 0.00 | 45 | 1015.7 |
| 20260507101518 | 13 | 195 | 4.8 | 17.7 | 0.00 | 0.00 | 0.00 | 45 | 1015.8 |
| 20260507100518 | 13 | 210 | 3.2 | 16.1 | 0.00 | 0.00 | 0.00 | 45 | 1015.8 |
| 20260507095517 | 13 | 204 | 3.2 | 9.7 | 0.00 | 0.00 | 0.00 | 45 | 1015.8 |
| 20260507094515 | 13 | 203 | 3.2 | 11.3 | 0.00 | 0.00 | 0.00 | 45 | 1015.7 |
| 20260507093517 | 13 | 187 | 3.2 | 16.1 | 0.00 | 0.00 | 0.00 | 45 | 1015.8 |
| 20260507092516 | 13 | 188 | 1.6 | 6.4 | 0.00 | 0.00 | 0.00 | 45 | 1015.8 |
| 20260507091519 | 14 | 179 | 1.6 | 12.9 | 0.00 | 0.00 | 0.00 | 46 | 1015.7 |
| 20260507090537 | 14 | 198 | 1.6 | 9.7 | 0.00 | 0.00 | 0.00 | 46 | 1015.7 |
| 20260507085515 | 15 | 199 | 1.6 | 12.9 | 0.00 | 0.00 | 0.00 | 46 | 1015.6 |
| 20260507084517 | 15 | 190 | 3.2 | 14.5 | 0.00 | 0.00 | 0.00 | 46 | 1015.4 |
| 20260507083515 | 15 | 209 | 4.8 | 16.1 | 0.00 | 0.00 | 0.00 | 46 | 1015.3 |
| 20260507082535 | 15 | 198 | 1.6 | 9.7 | 0.00 | 0.00 | 0.00 | 46 | 1015.4 |
| 20260507081536 | 15 | 164 | 1.6 | 14.5 | 0.00 | 0.00 | 0.00 | 46 | 1015.3 |
| 20260507080516 | 15 | 219 | 3.2 | 14.5 | 0.00 | 0.00 | 0.00 | 46 | 1015.2 |
| 20260507075519 | 16 | 235 | 3.2 | 12.9 | 0.00 | 0.00 | 0.00 | 46 | 1015.3 |
| 20260507074518 | 16 | 293 | 1.6 | 9.7 | 0.00 | 0.00 | 0.00 | 46 | 1015.3 |
| 20260507073516 | 16 | 114 | 0.0 | 1.6 | 0.00 | 0.00 | 0.00 | 46 | 1015.3 |
| 20260507072519 | 16 | 209 | 3.2 | 16.1 | 0.00 | 0.00 | 0.00 | 46 | 1014.9 |
| 20260507071518 | 16 | 269 | 1.6 | 11.3 | 0.00 | 0.00 | 0.00 | 46 | 1015.0 |
| 20260507070535 | 16 | 286 | 1.6 | 6.4 | 0.00 | 0.00 | 0.00 | 46 | 1015.0 |
| 20260507065518 | 17 | 253 | 4.8 | 20.9 | 0.00 | 0.00 | 0.00 | 47 | 1014.8 |
| 20260507064536 | 17 | 190 | 3.2 | 12.9 | 0.00 | 0.00 | 0.00 | 47 | 1014.7 |
| 20260507063517 | 17 | 218 | 4.8 | 20.9 | 0.00 | 0.00 | 0.00 | 47 | 1014.4 |
| 20260507062516 | 16 | 196 | 4.8 | 16.1 | 0.00 | 0.00 | 0.00 | 47 | 1014.3 |
| 20260507061515 | 17 | 237 | 1.6 | 4.8 | 0.00 | 0.00 | 0.00 | 47 | 1014.4 |
| 20260507060517 | 17 | 246 | 3.2 | 11.3 | 0.00 | 0.00 | 0.00 | 47 | 1014.3 |
| 20260507055515 | 18 | 244 | 3.2 | 11.3 | 0.00 | 0.00 | 0.00 | 47 | 1014.3 |
| 20260507054536 | 18 | 268 | 1.6 | 4.8 | 0.00 | 0.00 | 0.00 | 47 | 1014.1 |
| 20260507053516 | 19 | 277 | 3.2 | 9.7 | 0.00 | 0.00 | 0.00 | 47 | 1014.0 |
| 20260507052517 | 19 | 271 | 1.6 | 9.7 | 0.00 | 0.00 | 0.00 | 47 | 1013.9 |
| 20260507051521 | 18 | 263 | 1.6 | 9.7 | 0.00 | 0.00 | 0.00 | 48 | 1013.9 |
| 20260507050516 | 18 | 249 | 1.6 | 11.3 | 0.00 | 0.00 | 0.00 | 48 | 1014.0 |
| 20260507045536 | 19 | 51 | 1.6 | 4.8 | 0.00 | 0.00 | 0.00 | 48 | 1014.0 |
| 20260507044515 | 20 | 356 | 0.0 | 6.4 | 0.00 | 0.00 | 0.00 | 48 | 1013.9 |
| 20260507043515 | 19 | 325 | 0.0 | 3.2 | 0.00 | 0.00 | 0.00 | 48 | 1013.9 |
| 20260507042515 | 19 | 267 | 1.6 | 6.4 | 0.00 | 0.00 | 0.00 | 48 | 1013.9 |
| 20260507041515 | 20 | 275 | 1.6 | 9.7 | 0.00 | 0.00 | 0.00 | 48 | 1013.7 |
| 20260507040516 | 20 | 304 | 0.0 | 4.8 | 0.00 | 0.00 | 0.00 | 48 | 1013.4 |
| 20260507035520 | 20 | 307 | 0.0 | 4.8 | 0.00 | 0.00 | 0.00 | 49 | 1013.3 |
| 20260507034518 | 20 | 316 | 1.6 | 6.4 | 0.00 | 0.00 | 0.00 | 49 | 1013.2 |
| 20260507033540 | 21 | 301 | 0.0 | 6.4 | 0.00 | 0.00 | 0.00 | 49 | 1012.9 |
| 20260507032517 | 21 | 306 | 0.0 | 4.8 | 0.00 | 0.00 | 0.00 | 49 | 1012.8 |
| 20260507031517 | 22 | 330 | 0.0 | 1.6 | 0.00 | 0.00 | 0.00 | 49 | 1012.7 |
| 20260507030518 | 22 | 265 | 0.0 | 3.2 | 0.00 | 0.00 | 0.00 | 49 | 1012.5 |
| 20260507025516 | 22 | 346 | 0.0 | 4.8 | 0.00 | 0.00 | 0.00 | 49 | 1012.5 |
| 20260507024517 | 23 | 263 | 0.0 | 6.4 | 0.00 | 0.00 | 0.00 | 50 | 1012.5 |
| 20260507023515 | 23 | 273 | 0.0 | 1.6 | 0.00 | 0.00 | 0.00 | 50 | 1012.6 |
| 20260507022518 | 23 | 262 | 0.0 | 4.8 | 0.00 | 0.00 | 0.00 | 50 | 1012.6 |
| 20260507021537 | 23 | 265 | 1.6 | 12.9 | 0.00 | 0.00 | 0.00 | 51 | 1012.5 |
| 20260507020515 | 23 | 263 | 1.6 | 9.7 | 0.00 | 0.00 | 0.00 | 52 | 1012.4 |
| 20260507015515 | 24 | 274 | 1.6 | 14.5 | 0.00 | 0.00 | 0.00 | 55 | 1012.3 |
| 20260507014515 | 24 | 334 | 0.0 | 0.0 | 0.00 | 0.00 | 0.00 | 55 | 1012.3 |
| 20260507013516 | 25 | 179 | 0.0 | 1.6 | 0.00 | 0.00 | 0.00 | 55 | 1012.2 |
| 20260507012519 | 25 | 255 | 1.6 | 12.9 | 0.00 | 0.00 | 0.00 | 55 | 1012.2 |
| 20260507011517 | 25 | 260 | 1.6 | 8.0 | 0.00 | 0.00 | 0.00 | 55 | 1012.1 |
| 20260507010515 | 26 | 249 | 1.6 | 11.3 | 0.00 | 0.00 | 0.00 | 55 | 1012.1 |
| 20260507005515 | 26 | 246 | 0.0 | 0.0 | 0.00 | 0.00 | 0.00 | 55 | 1012.1 |
| 20260507004516 | 27 | 272 | 1.6 | 9.7 | 0.00 | 0.00 | 0.00 | 55 | 1012.1 |
| 20260507003515 | 27 | 348 | 0.0 | 4.8 | 0.00 | 0.00 | 0.00 | 55 | 1012.0 |
| 20260507002517 | 27 | 255 | 1.6 | 4.8 | 0.00 | 0.00 | 0.00 | 55 | 1012.0 |
| 20260507001517 | 28 | 145 | 0.0 | 1.6 | 0.00 | 0.00 | 0.00 | 55 | 1012.0 |
| 20260507000516 | 28 | 254 | 0.0 | 4.8 | 0.00 | 0.00 | 0.00 | 55 | 1011.9 |
| 20260506235518 | 28 | 225 | 0.0 | 3.2 | 0.00 | 0.00 | 0.00 | 55 | 1012.0 |
| 20260506234521 | 28 | 235 | 1.6 | 8.0 | 0.00 | 0.00 | 0.00 | 55 | 1012.0 |
| 20260506233516 | 29 | 0.0 | 0.0 | 0.00 | 0.00 | 0.00 | 56 | 1012.2 | |
| 20260506232516 | 29 | 253 | 0.0 | 6.4 | 0.00 | 0.00 | 0.00 | 56 | 1012.3 |
| 20260506231516 | 30 | 257 | 1.6 | 11.3 | 0.00 | 0.00 | 0.00 | 52 | 1012.3 |
| 20260506230517 | 30 | 227 | 3.2 | 17.7 | 0.00 | 0.00 | 0.00 | 53 | 1012.4 |
| 20260506225517 | 31 | 223 | 4.8 | 17.7 | 0.00 | 0.00 | 0.00 | 55 | 1012.5 |
| 20260506224518 | 32 | 242 | 3.2 | 17.7 | 0.00 | 0.00 | 0.00 | 59 | 1012.7 |
| 20260506223517 | 31 | 258 | 4.8 | 12.9 | 0.00 | 0.00 | 0.00 | 52 | 1012.7 |
| 20260506222517 | 31 | 295 | 3.2 | 16.1 | 0.00 | 0.00 | 0.00 | 55 | 1012.9 |
| 20260506221517 | 31 | 282 | 1.6 | 9.7 | 0.00 | 0.00 | 0.00 | 54 | 1013.0 |
| 20260506220516 | 31 | 298 | 1.6 | 6.4 | 0.00 | 0.00 | 0.00 | 54 | 1013.1 |
| 20260506215515 | 31 | 278 | 3.2 | 6.4 | 0.00 | 0.00 | 0.00 | 54 | 1013.3 |
| 20260506214515 | 32 | 247 | 4.8 | 16.1 | 0.00 | 0.00 | 0.00 | 54 | 1013.4 |
| 20260506213517 | 31 | 224 | 1.6 | 8.0 | 0.00 | 0.00 | 0.00 | 54 | 1013.4 |
| 20260506212517 | 30 | 240 | 4.8 | 16.1 | 0.00 | 0.00 | 0.00 | 50 | 1013.5 |